sensor_id;sensor_type;location;lat;lon;timestamp;temperature;humidity
20370;DHT22;10344;47.592;9.600;2023-03-14T00:01:43;11.20;99.90
20370;DHT22;10344;47.592;9.600;2023-03-14T00:04:09;11.20;99.90
20370;DHT22;10344;47.592;9.600;2023-03-14T00:06:43;11.10;99.90
20370;DHT22;10344;47.592;9.600;2023-03-14T00:09:16;11.00;99.90
20370;DHT22;10344;47.592;9.600;2023-03-14T00:11:42;10.80;99.90
20370;DHT22;10344;47.592;9.600;2023-03-14T00:14:08;10.70;99.90
20370;DHT22;10344;47.592;9.600;2023-03-14T00:16:33;10.60;99.90
20370;DHT22;10344;47.592;9.600;2023-03-14T00:18:59;10.60;99.90
20370;DHT22;10344;47.592;9.600;2023-03-14T00:21:25;10.40;99.90
20370;DHT22;10344;47.592;9.600;2023-03-14T00:23:51;10.30;99.90
20370;DHT22;10344;47.592;9.600;2023-03-14T00:26:21;10.20;99.90
20370;DHT22;10344;47.592;9.600;2023-03-14T00:28:54;10.10;99.90
20370;DHT22;10344;47.592;9.600;2023-03-14T00:31:20;10.00;99.90
20370;DHT22;10344;47.592;9.600;2023-03-14T00:33:46;9.90;99.90
20370;DHT22;10344;47.592;9.600;2023-03-14T00:36:19;9.90;99.90
20370;DHT22;10344;47.592;9.600;2023-03-14T00:38:48;9.80;99.90
20370;DHT22;10344;47.592;9.600;2023-03-14T00:41:19;9.80;99.90
20370;DHT22;10344;47.592;9.600;2023-03-14T00:43:45;9.70;99.90
20370;DHT22;10344;47.592;9.600;2023-03-14T00:46:11;9.80;99.90
20370;DHT22;10344;47.592;9.600;2023-03-14T00:48:42;9.70;99.90
20370;DHT22;10344;47.592;9.600;2023-03-14T00:51:09;9.60;99.90
20370;DHT22;10344;47.592;9.600;2023-03-14T00:53:37;9.60;99.90
20370;DHT22;10344;47.592;9.600;2023-03-14T00:56:09;9.60;99.90
20370;DHT22;10344;47.592;9.600;2023-03-14T00:58:41;9.60;99.90
20370;DHT22;10344;47.592;9.600;2023-03-14T01:01:09;9.60;99.90
20370;DHT22;10344;47.592;9.600;2023-03-14T01:03:36;9.60;99.90
20370;DHT22;10344;47.592;9.600;2023-03-14T01:06:18;9.60;99.90
20370;DHT22;10344;47.592;9.600;2023-03-14T01:08:45;9.50;99.90
20370;DHT22;10344;47.592;9.600;2023-03-14T01:11:14;9.50;99.90
20370;DHT22;10344;47.592;9.600;2023-03-14T01:13:40;9.50;99.90
20370;DHT22;10344;47.592;9.600;2023-03-14T01:16:08;9.40;99.90
20370;DHT22;10344;47.592;9.600;2023-03-14T01:18:42;9.30;99.90
20370;DHT22;10344;47.592;9.600;2023-03-14T01:21:20;9.30;99.90
20370;DHT22;10344;47.592;9.600;2023-03-14T01:23:47;9.30;99.90
20370;DHT22;10344;47.592;9.600;2023-03-14T01:26:15;9.30;99.90
20370;DHT22;10344;47.592;9.600;2023-03-14T01:28:41;9.20;99.90
20370;DHT22;10344;47.592;9.600;2023-03-14T01:31:09;9.20;99.90
20370;DHT22;10344;47.592;9.600;2023-03-14T01:33:35;9.30;99.90
20370;DHT22;10344;47.592;9.600;2023-03-14T01:36:02;9.20;99.90
20370;DHT22;10344;47.592;9.600;2023-03-14T01:38:29;9.10;99.90
20370;DHT22;10344;47.592;9.600;2023-03-14T01:40:58;9.10;99.90
20370;DHT22;10344;47.592;9.600;2023-03-14T01:43:24;9.00;99.90
20370;DHT22;10344;47.592;9.600;2023-03-14T01:48:36;9.00;99.90
20370;DHT22;10344;47.592;9.600;2023-03-14T01:51:05;8.90;99.90
20370;DHT22;10344;47.592;9.600;2023-03-14T01:53:31;9.00;99.90
20370;DHT22;10344;47.592;9.600;2023-03-14T01:55:57;9.20;99.90
20370;DHT22;10344;47.592;9.600;2023-03-14T01:58:27;9.10;99.90
20370;DHT22;10344;47.592;9.600;2023-03-14T02:00:59;9.10;99.90
20370;DHT22;10344;47.592;9.600;2023-03-14T02:03:27;9.10;99.90
20370;DHT22;10344;47.592;9.600;2023-03-14T02:05:54;9.10;99.90
20370;DHT22;10344;47.592;9.600;2023-03-14T02:08:27;9.10;99.90
20370;DHT22;10344;47.592;9.600;2023-03-14T02:10:53;9.10;99.90
20370;DHT22;10344;47.592;9.600;2023-03-14T02:13:19;9.00;99.90
20370;DHT22;10344;47.592;9.600;2023-03-14T02:15:46;9.00;99.90
20370;DHT22;10344;47.592;9.600;2023-03-14T02:18:13;9.00;99.90
20370;DHT22;10344;47.592;9.600;2023-03-14T02:20:53;8.90;99.90
20370;DHT22;10344;47.592;9.600;2023-03-14T02:23:39;8.90;99.90
20370;DHT22;10344;47.592;9.600;2023-03-14T02:26:08;9.00;99.90
20370;DHT22;10344;47.592;9.600;2023-03-14T02:28:35;9.00;99.90
20370;DHT22;10344;47.592;9.600;2023-03-14T02:31:01;9.20;99.90
20370;DHT22;10344;47.592;9.600;2023-03-14T02:33:28;9.20;99.90
20370;DHT22;10344;47.592;9.600;2023-03-14T02:35:58;9.10;99.90
20370;DHT22;10344;47.592;9.600;2023-03-14T02:38:52;9.10;99.90
20370;DHT22;10344;47.592;9.600;2023-03-14T02:41:16;9.10;99.90
20370;DHT22;10344;47.592;9.600;2023-03-14T02:43:42;9.10;99.90
20370;DHT22;10344;47.592;9.600;2023-03-14T02:46:20;9.10;99.90
20370;DHT22;10344;47.592;9.600;2023-03-14T02:49:17;9.20;99.90
20370;DHT22;10344;47.592;9.600;2023-03-14T02:51:44;9.20;99.90
20370;DHT22;10344;47.592;9.600;2023-03-14T02:54:11;9.10;99.90
20370;DHT22;10344;47.592;9.600;2023-03-14T02:56:37;9.10;99.90
20370;DHT22;10344;47.592;9.600;2023-03-14T02:59:08;9.10;99.90
20370;DHT22;10344;47.592;9.600;2023-03-14T03:01:36;9.10;99.90
20370;DHT22;10344;47.592;9.600;2023-03-14T03:04:04;9.10;99.90
20370;DHT22;10344;47.592;9.600;2023-03-14T03:06:30;9.10;99.90
20370;DHT22;10344;47.592;9.600;2023-03-14T03:08:58;9.00;99.90
20370;DHT22;10344;47.592;9.600;2023-03-14T03:11:23;9.00;99.90
20370;DHT22;10344;47.592;9.600;2023-03-14T03:13:49;8.90;99.90
20370;DHT22;10344;47.592;9.600;2023-03-14T03:16:14;9.00;99.90
20370;DHT22;10344;47.592;9.600;2023-03-14T03:18:42;9.00;99.90
20370;DHT22;10344;47.592;9.600;2023-03-14T03:21:08;8.90;99.90
20370;DHT22;10344;47.592;9.600;2023-03-14T03:23:35;8.90;99.90
20370;DHT22;10344;47.592;9.600;2023-03-14T03:26:04;8.90;99.90
20370;DHT22;10344;47.592;9.600;2023-03-14T03:28:32;8.90;99.90
20370;DHT22;10344;47.592;9.600;2023-03-14T03:30:57;8.80;99.90
20370;DHT22;10344;47.592;9.600;2023-03-14T03:33:23;8.70;99.90
20370;DHT22;10344;47.592;9.600;2023-03-14T03:35:50;8.80;99.90
20370;DHT22;10344;47.592;9.600;2023-03-14T03:38:16;8.80;99.90
20370;DHT22;10344;47.592;9.600;2023-03-14T03:40:42;8.80;99.90
20370;DHT22;10344;47.592;9.600;2023-03-14T03:43:10;8.90;99.90
20370;DHT22;10344;47.592;9.600;2023-03-14T03:45:36;8.80;99.90
20370;DHT22;10344;47.592;9.600;2023-03-14T03:48:01;8.80;99.90
20370;DHT22;10344;47.592;9.600;2023-03-14T03:50:27;8.80;99.90
20370;DHT22;10344;47.592;9.600;2023-03-14T03:52:53;8.70;99.90
20370;DHT22;10344;47.592;9.600;2023-03-14T03:55:18;8.70;99.90
20370;DHT22;10344;47.592;9.600;2023-03-14T03:57:44;8.70;99.90
20370;DHT22;10344;47.592;9.600;2023-03-14T04:00:11;8.60;99.90
20370;DHT22;10344;47.592;9.600;2023-03-14T04:02:38;8.60;99.90
20370;DHT22;10344;47.592;9.600;2023-03-14T04:05:04;8.60;99.90
20370;DHT22;10344;47.592;9.600;2023-03-14T04:07:32;8.50;99.90
20370;DHT22;10344;47.592;9.600;2023-03-14T04:09:59;8.50;99.90
20370;DHT22;10344;47.592;9.600;2023-03-14T04:12:25;8.50;99.90
20370;DHT22;10344;47.592;9.600;2023-03-14T04:14:51;8.40;99.90
20370;DHT22;10344;47.592;9.600;2023-03-14T04:17:17;8.40;99.90
20370;DHT22;10344;47.592;9.600;2023-03-14T04:19:42;8.30;99.90
20370;DHT22;10344;47.592;9.600;2023-03-14T04:22:08;8.30;99.90
20370;DHT22;10344;47.592;9.600;2023-03-14T04:24:34;8.30;99.90
20370;DHT22;10344;47.592;9.600;2023-03-14T04:27:02;8.30;99.90
20370;DHT22;10344;47.592;9.600;2023-03-14T04:29:28;8.30;99.90
20370;DHT22;10344;47.592;9.600;2023-03-14T04:31:55;8.30;99.90
20370;DHT22;10344;47.592;9.600;2023-03-14T04:34:20;8.30;99.90
20370;DHT22;10344;47.592;9.600;2023-03-14T04:36:51;8.30;99.90
20370;DHT22;10344;47.592;9.600;2023-03-14T04:39:16;8.30;99.90
20370;DHT22;10344;47.592;9.600;2023-03-14T04:41:44;8.30;99.90
20370;DHT22;10344;47.592;9.600;2023-03-14T04:44:10;8.20;99.90
20370;DHT22;10344;47.592;9.600;2023-03-14T04:46:35;8.20;99.90
20370;DHT22;10344;47.592;9.600;2023-03-14T04:49:01;8.20;99.90
20370;DHT22;10344;47.592;9.600;2023-03-14T04:51:27;8.20;99.90
20370;DHT22;10344;47.592;9.600;2023-03-14T04:53:53;8.10;99.90
20370;DHT22;10344;47.592;9.600;2023-03-14T04:56:25;8.10;99.90
20370;DHT22;10344;47.592;9.600;2023-03-14T04:58:53;8.10;99.90
20370;DHT22;10344;47.592;9.600;2023-03-14T05:01:19;8.10;99.90
20370;DHT22;10344;47.592;9.600;2023-03-14T05:03:47;8.20;99.90
20370;DHT22;10344;47.592;9.600;2023-03-14T05:06:12;8.20;99.90
20370;DHT22;10344;47.592;9.600;2023-03-14T05:08:38;8.30;99.90
20370;DHT22;10344;47.592;9.600;2023-03-14T05:11:11;8.30;99.90
20370;DHT22;10344;47.592;9.600;2023-03-14T05:13:39;8.30;99.90
20370;DHT22;10344;47.592;9.600;2023-03-14T05:16:10;8.30;99.90
20370;DHT22;10344;47.592;9.600;2023-03-14T05:18:39;8.30;99.90
20370;DHT22;10344;47.592;9.600;2023-03-14T05:21:05;8.30;99.90
20370;DHT22;10344;47.592;9.600;2023-03-14T05:23:30;8.30;99.90
20370;DHT22;10344;47.592;9.600;2023-03-14T05:25:56;8.40;99.90
20370;DHT22;10344;47.592;9.600;2023-03-14T05:28:24;8.30;99.90
20370;DHT22;10344;47.592;9.600;2023-03-14T05:30:55;8.30;99.90
20370;DHT22;10344;47.592;9.600;2023-03-14T05:33:20;8.40;99.90
20370;DHT22;10344;47.592;9.600;2023-03-14T05:35:48;8.30;99.90
20370;DHT22;10344;47.592;9.600;2023-03-14T05:38:14;8.30;99.90
20370;DHT22;10344;47.592;9.600;2023-03-14T05:40:39;8.40;99.90
20370;DHT22;10344;47.592;9.600;2023-03-14T05:43:07;8.50;99.90
20370;DHT22;10344;47.592;9.600;2023-03-14T05:45:36;8.50;99.90
20370;DHT22;10344;47.592;9.600;2023-03-14T05:48:01;8.40;99.90
20370;DHT22;10344;47.592;9.600;2023-03-14T05:50:29;8.40;99.90
20370;DHT22;10344;47.592;9.600;2023-03-14T05:52:55;8.30;99.90
20370;DHT22;10344;47.592;9.600;2023-03-14T05:55:23;8.40;99.90
20370;DHT22;10344;47.592;9.600;2023-03-14T05:57:48;8.30;99.90
20370;DHT22;10344;47.592;9.600;2023-03-14T06:00:14;8.30;99.90
20370;DHT22;10344;47.592;9.600;2023-03-14T06:02:42;8.30;99.90
20370;DHT22;10344;47.592;9.600;2023-03-14T06:05:08;8.20;99.90
20370;DHT22;10344;47.592;9.600;2023-03-14T06:07:34;8.20;99.90
20370;DHT22;10344;47.592;9.600;2023-03-14T06:10:06;8.20;99.90
20370;DHT22;10344;47.592;9.600;2023-03-14T06:12:35;8.20;99.90
20370;DHT22;10344;47.592;9.600;2023-03-14T06:15:05;8.20;99.90
20370;DHT22;10344;47.592;9.600;2023-03-14T06:17:33;8.20;99.90
20370;DHT22;10344;47.592;9.600;2023-03-14T06:20:07;8.20;99.90
20370;DHT22;10344;47.592;9.600;2023-03-14T06:22:33;8.20;99.90
20370;DHT22;10344;47.592;9.600;2023-03-14T06:25:07;8.20;99.90
20370;DHT22;10344;47.592;9.600;2023-03-14T06:27:34;8.20;99.90
20370;DHT22;10344;47.592;9.600;2023-03-14T06:30:07;8.30;99.90
20370;DHT22;10344;47.592;9.600;2023-03-14T06:32:33;8.30;99.90
20370;DHT22;10344;47.592;9.600;2023-03-14T06:35:04;8.30;99.90
20370;DHT22;10344;47.592;9.600;2023-03-14T06:37:32;8.30;99.90
20370;DHT22;10344;47.592;9.600;2023-03-14T06:39:58;8.40;99.90
20370;DHT22;10344;47.592;9.600;2023-03-14T06:42:27;8.50;99.90
20370;DHT22;10344;47.592;9.600;2023-03-14T06:44:56;8.50;99.90
20370;DHT22;10344;47.592;9.600;2023-03-14T06:47:24;8.50;99.90
20370;DHT22;10344;47.592;9.600;2023-03-14T06:49:51;8.60;99.90
20370;DHT22;10344;47.592;9.600;2023-03-14T06:52:19;8.60;99.90
20370;DHT22;10344;47.592;9.600;2023-03-14T06:54:45;8.60;99.90
20370;DHT22;10344;47.592;9.600;2023-03-14T06:57:11;8.60;99.90
20370;DHT22;10344;47.592;9.600;2023-03-14T06:59:36;8.60;99.90
20370;DHT22;10344;47.592;9.600;2023-03-14T07:02:07;8.60;99.90
20370;DHT22;10344;47.592;9.600;2023-03-14T07:04:39;8.70;99.90
20370;DHT22;10344;47.592;9.600;2023-03-14T07:07:06;8.90;99.90
20370;DHT22;10344;47.592;9.600;2023-03-14T07:09:37;9.00;99.90
20370;DHT22;10344;47.592;9.600;2023-03-14T07:12:04;9.10;99.90
20370;DHT22;10344;47.592;9.600;2023-03-14T07:14:38;9.20;99.90
20370;DHT22;10344;47.592;9.600;2023-03-14T07:17:04;9.40;99.90
20370;DHT22;10344;47.592;9.600;2023-03-14T07:19:29;9.50;99.90
20370;DHT22;10344;47.592;9.600;2023-03-14T07:21:55;9.50;99.90
20370;DHT22;10344;47.592;9.600;2023-03-14T07:24:23;9.50;99.90
20370;DHT22;10344;47.592;9.600;2023-03-14T07:26:49;9.60;99.90
20370;DHT22;10344;47.592;9.600;2023-03-14T07:29:17;9.60;99.90
20370;DHT22;10344;47.592;9.600;2023-03-14T07:31:45;9.60;99.90
20370;DHT22;10344;47.592;9.600;2023-03-14T07:34:10;9.70;99.90
20370;DHT22;10344;47.592;9.600;2023-03-14T07:36:42;9.80;99.90
20370;DHT22;10344;47.592;9.600;2023-03-14T07:39:08;9.80;99.90
20370;DHT22;10344;47.592;9.600;2023-03-14T07:41:33;9.90;99.90
20370;DHT22;10344;47.592;9.600;2023-03-14T07:43:59;10.00;99.90
20370;DHT22;10344;47.592;9.600;2023-03-14T07:46:25;10.20;99.90
20370;DHT22;10344;47.592;9.600;2023-03-14T07:48:52;10.60;99.90
20370;DHT22;10344;47.592;9.600;2023-03-14T07:51:18;11.10;99.90
20370;DHT22;10344;47.592;9.600;2023-03-14T07:53:44;11.30;99.90
20370;DHT22;10344;47.592;9.600;2023-03-14T07:56:10;11.70;99.90
20370;DHT22;10344;47.592;9.600;2023-03-14T07:58:41;12.30;99.90
20370;DHT22;10344;47.592;9.600;2023-03-14T08:01:07;13.00;99.90
20370;DHT22;10344;47.592;9.600;2023-03-14T08:03:32;13.40;99.90
20370;DHT22;10344;47.592;9.600;2023-03-14T08:06:09;13.70;99.90
20370;DHT22;10344;47.592;9.600;2023-03-14T08:08:40;14.00;99.90
20370;DHT22;10344;47.592;9.600;2023-03-14T08:11:07;14.10;99.90
20370;DHT22;10344;47.592;9.600;2023-03-14T08:13:36;14.50;99.90
20370;DHT22;10344;47.592;9.600;2023-03-14T08:16:05;14.40;99.90
20370;DHT22;10344;47.592;9.600;2023-03-14T08:18:31;14.10;99.90
20370;DHT22;10344;47.592;9.600;2023-03-14T08:21:00;14.10;99.90
20370;DHT22;10344;47.592;9.600;2023-03-14T08:23:26;14.00;99.90
20370;DHT22;10344;47.592;9.600;2023-03-14T08:25:52;13.80;99.90
20370;DHT22;10344;47.592;9.600;2023-03-14T08:28:18;13.70;99.90
20370;DHT22;10344;47.592;9.600;2023-03-14T08:30:44;13.90;99.90
20370;DHT22;10344;47.592;9.600;2023-03-14T08:33:16;14.30;99.90
20370;DHT22;10344;47.592;9.600;2023-03-14T08:35:42;15.10;99.90
20370;DHT22;10344;47.592;9.600;2023-03-14T08:38:10;16.00;99.90
20370;DHT22;10344;47.592;9.600;2023-03-14T08:40:41;16.80;99.90
20370;DHT22;10344;47.592;9.600;2023-03-14T08:43:07;17.50;99.90
20370;DHT22;10344;47.592;9.600;2023-03-14T08:45:32;18.70;99.90
20370;DHT22;10344;47.592;9.600;2023-03-14T08:47:58;19.90;99.90
20370;DHT22;10344;47.592;9.600;2023-03-14T08:50:26;20.60;99.90
20370;DHT22;10344;47.592;9.600;2023-03-14T08:52:57;21.40;99.90
20370;DHT22;10344;47.592;9.600;2023-03-14T08:55:27;22.40;99.90
20370;DHT22;10344;47.592;9.600;2023-03-14T08:57:57;23.30;99.90
20370;DHT22;10344;47.592;9.600;2023-03-14T09:00:22;23.50;99.90
20370;DHT22;10344;47.592;9.600;2023-03-14T09:02:50;23.80;99.90
20370;DHT22;10344;47.592;9.600;2023-03-14T09:05:16;24.70;99.90
20370;DHT22;10344;47.592;9.600;2023-03-14T09:07:42;24.60;99.90
20370;DHT22;10344;47.592;9.600;2023-03-14T09:10:09;24.10;99.30
20370;DHT22;10344;47.592;9.600;2023-03-14T09:12:42;23.00;99.10
20370;DHT22;10344;47.592;9.600;2023-03-14T09:15:09;21.10;99.90
20370;DHT22;10344;47.592;9.600;2023-03-14T09:17:35;20.00;99.90
20370;DHT22;10344;47.592;9.600;2023-03-14T09:20:03;19.10;99.90
20370;DHT22;10344;47.592;9.600;2023-03-14T09:22:32;18.20;99.90
20370;DHT22;10344;47.592;9.600;2023-03-14T09:25:06;17.50;99.90
20370;DHT22;10344;47.592;9.600;2023-03-14T09:27:32;17.10;99.90
20370;DHT22;10344;47.592;9.600;2023-03-14T09:30:05;16.60;99.90
20370;DHT22;10344;47.592;9.600;2023-03-14T09:32:33;16.30;99.90
20370;DHT22;10344;47.592;9.600;2023-03-14T09:35:08;15.90;99.90
20370;DHT22;10344;47.592;9.600;2023-03-14T09:37:40;15.50;99.90
20370;DHT22;10344;47.592;9.600;2023-03-14T09:40:06;15.30;99.90
20370;DHT22;10344;47.592;9.600;2023-03-14T09:42:37;15.10;99.90
20370;DHT22;10344;47.592;9.600;2023-03-14T09:45:39;14.70;99.90
20370;DHT22;10344;47.592;9.600;2023-03-14T09:48:08;14.50;99.90
20370;DHT22;10344;47.592;9.600;2023-03-14T09:50:53;14.40;99.90
20370;DHT22;10344;47.592;9.600;2023-03-14T09:53:27;14.40;99.90
20370;DHT22;10344;47.592;9.600;2023-03-14T09:56:07;14.20;99.90
20370;DHT22;10344;47.592;9.600;2023-03-14T09:58:44;14.00;99.90
20370;DHT22;10344;47.592;9.600;2023-03-14T10:01:29;14.00;99.90
20370;DHT22;10344;47.592;9.600;2023-03-14T10:04:15;13.90;99.90
20370;DHT22;10344;47.592;9.600;2023-03-14T10:06:41;13.80;99.90
20370;DHT22;10344;47.592;9.600;2023-03-14T10:09:29;13.90;99.90
20370;DHT22;10344;47.592;9.600;2023-03-14T10:11:58;13.90;99.90
20370;DHT22;10344;47.592;9.600;2023-03-14T10:14:34;13.80;99.90
20370;DHT22;10344;47.592;9.600;2023-03-14T10:17:09;13.80;99.90
20370;DHT22;10344;47.592;9.600;2023-03-14T10:20:25;13.70;99.90
20370;DHT22;10344;47.592;9.600;2023-03-14T10:22:55;13.70;99.90
20370;DHT22;10344;47.592;9.600;2023-03-14T10:25:29;13.80;99.90
20370;DHT22;10344;47.592;9.600;2023-03-14T10:27:55;13.80;99.90
20370;DHT22;10344;47.592;9.600;2023-03-14T10:35:44;13.60;99.90
20370;DHT22;10344;47.592;9.600;2023-03-14T10:38:19;13.50;99.90
20370;DHT22;10344;47.592;9.600;2023-03-14T10:40:55;13.40;99.90
20370;DHT22;10344;47.592;9.600;2023-03-14T10:43:32;13.30;99.90
20370;DHT22;10344;47.592;9.600;2023-03-14T10:46:18;13.20;99.90
20370;DHT22;10344;47.592;9.600;2023-03-14T10:48:54;13.10;99.90
20370;DHT22;10344;47.592;9.600;2023-03-14T10:51:27;13.00;99.90
20370;DHT22;10344;47.592;9.600;2023-03-14T10:54:20;12.90;99.90
20370;DHT22;10344;47.592;9.600;2023-03-14T10:57:18;12.90;99.90
20370;DHT22;10344;47.592;9.600;2023-03-14T10:59:52;12.90;99.90
20370;DHT22;10344;47.592;9.600;2023-03-14T11:05:11;12.70;99.90
20370;DHT22;10344;47.592;9.600;2023-03-14T11:07:43;12.80;99.90
20370;DHT22;10344;47.592;9.600;2023-03-14T11:16:06;12.60;99.90
20370;DHT22;10344;47.592;9.600;2023-03-14T11:29:45;12.30;99.90
20370;DHT22;10344;47.592;9.600;2023-03-14T11:35:24;12.00;99.90
20370;DHT22;10344;47.592;9.600;2023-03-14T11:40:43;11.60;99.90
20370;DHT22;10344;47.592;9.600;2023-03-14T11:43:15;11.50;99.90
20370;DHT22;10344;47.592;9.600;2023-03-14T11:45:45;11.40;99.90
20370;DHT22;10344;47.592;9.600;2023-03-14T11:48:40;11.40;99.90
20370;DHT22;10344;47.592;9.600;2023-03-14T11:51:29;11.30;99.90
20370;DHT22;10344;47.592;9.600;2023-03-14T11:59:30;11.30;99.90
20370;DHT22;10344;47.592;9.600;2023-03-14T12:02:11;11.20;99.90
20370;DHT22;10344;47.592;9.600;2023-03-14T12:07:32;11.10;99.90
20370;DHT22;10344;47.592;9.600;2023-03-14T12:10:09;10.90;99.90
20370;DHT22;10344;47.592;9.600;2023-03-14T12:12:41;10.80;99.90
20370;DHT22;10344;47.592;9.600;2023-03-14T12:15:18;10.70;99.90
20370;DHT22;10344;47.592;9.600;2023-03-14T12:17:45;10.60;99.90
20370;DHT22;10344;47.592;9.600;2023-03-14T12:22:46;10.40;99.90
20370;DHT22;10344;47.592;9.600;2023-03-14T12:25:22;10.40;99.90
20370;DHT22;10344;47.592;9.600;2023-03-14T12:30:34;10.30;99.90
20370;DHT22;10344;47.592;9.600;2023-03-14T12:35:42;10.20;99.90
20370;DHT22;10344;47.592;9.600;2023-03-14T12:41:28;9.80;99.90
20370;DHT22;10344;47.592;9.600;2023-03-14T12:43:55;9.50;99.90
20370;DHT22;10344;47.592;9.600;2023-03-14T12:49:07;9.10;99.90
20370;DHT22;10344;47.592;9.600;2023-03-14T12:51:41;8.90;99.90
20370;DHT22;10344;47.592;9.600;2023-03-14T12:57:24;8.70;99.90
20370;DHT22;10344;47.592;9.600;2023-03-14T13:02:45;8.80;99.90
20370;DHT22;10344;47.592;9.600;2023-03-14T13:05:18;8.80;99.90
20370;DHT22;10344;47.592;9.600;2023-03-14T13:10:51;8.80;99.90
20370;DHT22;10344;47.592;9.600;2023-03-14T13:13:23;8.80;99.90
20370;DHT22;10344;47.592;9.600;2023-03-14T13:15:57;8.70;99.90
20370;DHT22;10344;47.592;9.600;2023-03-14T13:21:21;8.70;99.90
20370;DHT22;10344;47.592;9.600;2023-03-14T13:23:57;8.80;99.90
20370;DHT22;10344;47.592;9.600;2023-03-14T13:26:41;9.00;99.90
20370;DHT22;10344;47.592;9.600;2023-03-14T13:31:59;9.30;99.90
20370;DHT22;10344;47.592;9.600;2023-03-14T13:34:35;9.50;99.90
20370;DHT22;10344;47.592;9.600;2023-03-14T13:37:22;9.80;99.90
20370;DHT22;10344;47.592;9.600;2023-03-14T13:39:54;9.90;99.90
20370;DHT22;10344;47.592;9.600;2023-03-14T13:42:21;9.90;99.90
20370;DHT22;10344;47.592;9.600;2023-03-14T13:44:56;9.90;99.90
20370;DHT22;10344;47.592;9.600;2023-03-14T13:47:27;9.90;99.90
20370;DHT22;10344;47.592;9.600;2023-03-14T13:49:53;9.90;99.90
20370;DHT22;10344;47.592;9.600;2023-03-14T13:54:54;10.00;99.90
20370;DHT22;10344;47.592;9.600;2023-03-14T13:57:20;10.10;99.90
20370;DHT22;10344;47.592;9.600;2023-03-14T14:00:05;10.30;99.90
20370;DHT22;10344;47.592;9.600;2023-03-14T14:02:41;10.50;99.90
20370;DHT22;10344;47.592;9.600;2023-03-14T14:05:08;10.50;99.90
20370;DHT22;10344;47.592;9.600;2023-03-14T14:07:35;10.60;99.90
20370;DHT22;10344;47.592;9.600;2023-03-14T14:10:04;10.60;99.90
20370;DHT22;10344;47.592;9.600;2023-03-14T14:17:52;10.40;99.90
20370;DHT22;10344;47.592;9.600;2023-03-14T14:20:40;10.10;99.90
20370;DHT22;10344;47.592;9.600;2023-03-14T14:23:27;9.70;99.90
20370;DHT22;10344;47.592;9.600;2023-03-14T14:25:55;9.30;99.90
20370;DHT22;10344;47.592;9.600;2023-03-14T14:28:33;9.10;99.90
20370;DHT22;10344;47.592;9.600;2023-03-14T14:33:43;8.80;99.90
20370;DHT22;10344;47.592;9.600;2023-03-14T14:41:39;8.90;99.90
20370;DHT22;10344;47.592;9.600;2023-03-14T14:44:05;9.10;99.90
20370;DHT22;10344;47.592;9.600;2023-03-14T14:46:34;9.20;99.90
20370;DHT22;10344;47.592;9.600;2023-03-14T14:49:08;9.20;99.90
20370;DHT22;10344;47.592;9.600;2023-03-14T14:51:43;9.60;99.90
20370;DHT22;10344;47.592;9.600;2023-03-14T14:54:16;10.10;99.90
20370;DHT22;10344;47.592;9.600;2023-03-14T14:56:53;10.50;99.90
20370;DHT22;10344;47.592;9.600;2023-03-14T14:59:28;10.90;99.90
20370;DHT22;10344;47.592;9.600;2023-03-14T15:01:59;10.90;99.90
20370;DHT22;10344;47.592;9.600;2023-03-14T15:04:31;10.70;99.90
20370;DHT22;10344;47.592;9.600;2023-03-14T15:06:59;10.40;99.90
20370;DHT22;10344;47.592;9.600;2023-03-14T15:09:31;10.20;99.90
20370;DHT22;10344;47.592;9.600;2023-03-14T15:11:56;10.00;99.90
20370;DHT22;10344;47.592;9.600;2023-03-14T15:14:22;9.90;99.90
20370;DHT22;10344;47.592;9.600;2023-03-14T15:16:53;9.90;99.90
20370;DHT22;10344;47.592;9.600;2023-03-14T15:19:22;9.80;99.90
20370;DHT22;10344;47.592;9.600;2023-03-14T15:21:52;9.80;99.90
20370;DHT22;10344;47.592;9.600;2023-03-14T15:24:18;9.80;99.90
20370;DHT22;10344;47.592;9.600;2023-03-14T15:26:44;9.60;99.90
20370;DHT22;10344;47.592;9.600;2023-03-14T15:29:11;9.60;99.90
20370;DHT22;10344;47.592;9.600;2023-03-14T15:31:40;9.50;99.90
20370;DHT22;10344;47.592;9.600;2023-03-14T15:34:08;9.60;99.90
20370;DHT22;10344;47.592;9.600;2023-03-14T15:36:34;9.60;99.90
20370;DHT22;10344;47.592;9.600;2023-03-14T15:39:05;9.50;99.90
20370;DHT22;10344;47.592;9.600;2023-03-14T15:41:31;9.60;99.90
20370;DHT22;10344;47.592;9.600;2023-03-14T15:44:05;9.50;99.90
20370;DHT22;10344;47.592;9.600;2023-03-14T15:46:34;9.50;99.90
20370;DHT22;10344;47.592;9.600;2023-03-14T15:49:09;9.50;99.90
20370;DHT22;10344;47.592;9.600;2023-03-14T15:51:34;9.60;99.90
20370;DHT22;10344;47.592;9.600;2023-03-14T15:54:07;9.70;99.90
20370;DHT22;10344;47.592;9.600;2023-03-14T15:56:33;9.80;99.90
20370;DHT22;10344;47.592;9.600;2023-03-14T15:59:06;9.60;99.90
20370;DHT22;10344;47.592;9.600;2023-03-14T16:01:32;9.60;99.90
20370;DHT22;10344;47.592;9.600;2023-03-14T16:04:06;9.50;99.90
20370;DHT22;10344;47.592;9.600;2023-03-14T16:06:31;9.50;99.90
20370;DHT22;10344;47.592;9.600;2023-03-14T16:09:05;9.50;99.90
20370;DHT22;10344;47.592;9.600;2023-03-14T16:11:34;9.50;99.90
20370;DHT22;10344;47.592;9.600;2023-03-14T16:14:09;9.50;99.90
20370;DHT22;10344;47.592;9.600;2023-03-14T16:16:35;9.60;99.90
20370;DHT22;10344;47.592;9.600;2023-03-14T16:19:08;9.60;99.90
20370;DHT22;10344;47.592;9.600;2023-03-14T16:21:33;9.60;99.90
20370;DHT22;10344;47.592;9.600;2023-03-14T16:24:03;9.60;99.90
20370;DHT22;10344;47.592;9.600;2023-03-14T16:26:31;9.60;99.90
20370;DHT22;10344;47.592;9.600;2023-03-14T16:28:59;9.60;99.90
20370;DHT22;10344;47.592;9.600;2023-03-14T16:31:32;9.60;99.90
20370;DHT22;10344;47.592;9.600;2023-03-14T16:34:10;9.60;99.90
20370;DHT22;10344;47.592;9.600;2023-03-14T16:36:35;9.60;99.90
20370;DHT22;10344;47.592;9.600;2023-03-14T16:39:04;9.70;99.90
20370;DHT22;10344;47.592;9.600;2023-03-14T16:41:30;9.70;99.90
20370;DHT22;10344;47.592;9.600;2023-03-14T16:44:03;9.80;99.90
20370;DHT22;10344;47.592;9.600;2023-03-14T16:46:29;9.80;99.90
20370;DHT22;10344;47.592;9.600;2023-03-14T16:48:55;9.80;99.90
20370;DHT22;10344;47.592;9.600;2023-03-14T16:51:22;9.80;99.90
20370;DHT22;10344;47.592;9.600;2023-03-14T16:53:56;9.70;99.90
20370;DHT22;10344;47.592;9.600;2023-03-14T16:56:32;9.60;99.90
20370;DHT22;10344;47.592;9.600;2023-03-14T16:59:06;9.60;99.90
20370;DHT22;10344;47.592;9.600;2023-03-14T17:01:32;9.50;99.90
20370;DHT22;10344;47.592;9.600;2023-03-14T17:03:57;9.30;99.90
20370;DHT22;10344;47.592;9.600;2023-03-14T17:06:28;9.30;99.90
20370;DHT22;10344;47.592;9.600;2023-03-14T17:08:55;9.20;99.90
20370;DHT22;10344;47.592;9.600;2023-03-14T17:11:23;9.10;99.90
20370;DHT22;10344;47.592;9.600;2023-03-14T17:13:57;9.00;99.90
20370;DHT22;10344;47.592;9.600;2023-03-14T17:16:28;8.80;99.90
20370;DHT22;10344;47.592;9.600;2023-03-14T17:18:54;8.80;99.90
20370;DHT22;10344;47.592;9.600;2023-03-14T17:21:24;8.70;99.90
20370;DHT22;10344;47.592;9.600;2023-03-14T17:23:53;8.60;99.90